Time;durP1;ratioP1;P1;durP2;ratioP2;P2;SDS_P1;SDS_P2;PMS_P1;PMS_P2;Temp;Humidity;BMP_temperature;BMP_pressure;BME280_temperature;BME280_humidity;BME280_pressure;Samples;Min_cycle;Max_cycle;Signal;HPM_P1;HPM_P2
2024/03/19 00:00:44;;;;;;;10.27;6.20;;;7.30;99.90;;;;;;5056695;28;20601;-83
2024/03/19 00:03:11;;;;;;;12.97;6.80;;;7.30;99.90;;;;;;5070257;28;20198;-83
2024/03/19 00:05:37;;;;;;;12.47;6.60;;;7.20;99.90;;;;;;5061998;28;20587;-83
2024/03/19 00:08:05;;;;;;;11.77;6.60;;;7.20;99.90;;;;;;5077179;28;20214;-84
2024/03/19 00:10:33;;;;;;;11.10;6.10;;;7.30;99.90;;;;;;5066088;28;20257;-83
2024/03/19 00:13:00;;;;;;;11.07;6.77;;;7.20;99.90;;;;;;5065096;28;20211;-83
2024/03/19 00:15:28;;;;;;;11.03;6.13;;;7.30;99.90;;;;;;5056577;28;20233;-83
2024/03/19 00:17:55;;;;;;;12.67;7.33;;;7.30;99.90;;;;;;5056939;28;20230;-84
2024/03/19 00:20:22;;;;;;;11.73;6.63;;;7.30;1.00;;;;;;5056622;28;20253;-83
2024/03/19 00:22:49;;;;;;;13.67;7.90;;;7.30;1.00;;;;;;5058955;28;20685;-83
2024/03/19 00:25:16;;;;;;;13.63;7.37;;;7.20;1.00;;;;;;5056568;28;20647;-83
2024/03/19 00:27:44;;;;;;;11.63;6.50;;;7.10;99.90;;;;;;5070019;28;20206;-84
2024/03/19 00:30:13;;;;;;;14.23;7.43;;;7.00;99.90;;;;;;5058838;28;20256;-84
2024/03/19 00:32:40;;;;;;;16.60;6.93;;;7.00;99.90;;;;;;5056621;28;20618;-83
2024/03/19 00:35:09;;;;;;;13.03;7.30;;;6.90;99.90;;;;;;5056192;28;20741;-83
2024/03/19 00:37:37;;;;;;;13.73;6.70;;;6.90;1.00;;;;;;5056558;28;20282;-83
2024/03/19 00:40:10;;;;;;;10.77;6.57;;;6.90;99.90;;;;;;5064606;28;20636;-83
2024/03/19 00:42:37;;;;;;;11.40;6.60;;;7.00;99.90;;;;;;5056095;28;20226;-83
2024/03/19 00:45:06;;;;;;;9.53;5.80;;;7.00;99.90;;;;;;5064142;28;20588;-83
2024/03/19 00:47:33;;;;;;;10.60;6.30;;;7.10;99.90;;;;;;5036618;28;20203;-82
2024/03/19 00:50:00;;;;;;;13.03;6.47;;;7.00;12.90;;;;;;5036346;28;20207;-83
2024/03/19 00:52:27;;;;;;;11.63;6.40;;;6.90;1.00;;;;;;5047280;28;20226;-84
2024/03/19 00:54:54;;;;;;;10.77;6.03;;;6.90;1.00;;;;;;5053844;28;20360;-83
2024/03/19 00:57:22;;;;;;;11.97;5.87;;;7.00;1.00;;;;;;5066885;28;20239;-84
2024/03/19 00:59:48;;;;;;;10.87;6.07;;;7.00;1.00;;;;;;5060245;28;20211;-85
2024/03/19 01:02:17;;;;;;;9.90;6.07;;;7.00;1.00;;;;;;5077659;28;20684;-83
2024/03/19 01:04:44;;;;;;;12.13;5.60;;;7.10;1.00;;;;;;5059985;28;20211;-83
2024/03/19 01:07:11;;;;;;;10.00;5.90;;;7.10;1.00;;;;;;5071679;28;20660;-83
2024/03/19 01:09:39;;;;;;;9.87;5.70;;;7.10;1.00;;;;;;5073582;28;20221;-83
2024/03/19 01:12:08;;;;;;;10.90;5.93;;;7.10;1.00;;;;;;5069467;28;20226;-82
2024/03/19 01:14:35;;;;;;;10.47;5.80;;;7.10;1.00;;;;;;5059910;28;20784;-83
2024/03/19 01:17:03;;;;;;;10.20;6.03;;;7.00;1.00;;;;;;5059800;28;20298;-82
2024/03/19 01:19:31;;;;;;;11.10;5.73;;;7.10;1.00;;;;;;5064342;28;20565;-83
2024/03/19 01:21:58;;;;;;;9.43;5.83;;;7.00;1.00;;;;;;5079713;28;20241;-83
2024/03/19 01:24:25;;;;;;;10.97;5.70;;;7.10;1.00;;;;;;5079732;28;20254;-84
2024/03/19 01:26:52;;;;;;;9.87;5.90;;;7.10;1.00;;;;;;5079436;28;20194;-83
2024/03/19 01:29:19;;;;;;;11.57;5.87;;;7.00;1.00;;;;;;5065012;28;20304;-83
2024/03/19 01:31:46;;;;;;;10.10;5.80;;;7.10;1.00;;;;;;5073563;28;20309;-83
2024/03/19 01:34:13;;;;;;;10.10;5.40;;;7.00;1.00;;;;;;5072930;28;20223;-83
2024/03/19 01:36:41;;;;;;;9.73;5.70;;;7.00;1.00;;;;;;5059162;28;20230;-84
2024/03/19 01:39:09;;;;;;;10.70;5.50;;;7.00;1.00;;;;;;5067328;28;20203;-83
2024/03/19 01:41:36;;;;;;;8.87;5.43;;;7.00;1.00;;;;;;5059640;28;20640;-84
2024/03/19 01:44:03;;;;;;;9.57;5.47;;;7.00;1.00;;;;;;5059266;28;20219;-83
2024/03/19 01:46:30;;;;;;;10.17;5.47;;;7.00;1.00;;;;;;5064406;28;20198;-84
2024/03/19 01:48:59;;;;;;;10.03;5.43;;;7.00;1.00;;;;;;5079525;28;20228;-83
2024/03/19 01:51:27;;;;;;;11.13;5.93;;;7.00;1.00;;;;;;5071583;28;20222;-83
2024/03/19 01:53:56;;;;;;;9.80;5.53;;;7.00;1.00;;;;;;5064109;28;20651;-83
2024/03/19 01:56:24;;;;;;;10.03;5.70;;;7.00;1.00;;;;;;5059858;28;20213;-83
2024/03/19 01:58:51;;;;;;;9.57;5.40;;;7.00;1.00;;;;;;5075228;28;20233;-83
2024/03/19 02:01:18;;;;;;;9.20;5.63;;;7.00;1.00;;;;;;5078931;28;20257;-83
2024/03/19 02:03:45;;;;;;;8.47;5.20;;;6.90;1.00;;;;;;5078349;28;20228;-83
2024/03/19 02:06:13;;;;;;;8.90;5.47;;;6.90;1.00;;;;;;5069970;28;20203;-83
2024/03/19 02:08:56;;;;;;;9.80;5.80;;;6.80;1.00;;;;;;5064902;28;20237;-83
2024/03/19 02:11:25;;;;;;;9.97;5.60;;;6.80;1.00;;;;;;5046943;28;20214;-84
2024/03/19 02:13:51;;;;;;;8.93;5.33;;;6.80;1.00;;;;;;5078720;28;20233;-83
2024/03/19 02:16:18;;;;;;;10.40;5.23;;;6.70;1.00;;;;;;5066503;28;20731;-82
2024/03/19 02:18:46;;;;;;;7.67;4.90;;;6.70;99.90;;;;;;5064866;28;20220;-84
2024/03/19 02:21:13;;;;;;;8.97;5.27;;;6.50;1.00;;;;;;5070081;28;20231;-83
2024/03/19 02:23:41;;;;;;;9.90;5.17;;;6.30;1.00;;;;;;5060687;28;20214;-83
2024/03/19 02:26:08;;;;;;;8.97;5.30;;;6.20;1.00;;;;;;5067987;28;20785;-84
2024/03/19 02:28:35;;;;;;;9.70;5.43;;;6.30;99.90;;;;;;5064301;28;20199;-84
2024/03/19 02:31:02;;;;;;;8.33;4.90;;;6.40;99.90;;;;;;5075171;28;20672;-83
2024/03/19 02:33:29;;;;;;;10.90;5.60;;;6.40;99.90;;;;;;5078618;28;20626;-82
2024/03/19 02:35:55;;;;;;;9.93;5.23;;;6.50;99.90;;;;;;5078371;28;20198;-83
2024/03/19 02:38:24;;;;;;;9.63;5.30;;;6.50;99.90;;;;;;5037893;28;20747;-83
2024/03/19 02:40:52;;;;;;;9.63;4.90;;;6.50;99.90;;;;;;5052572;28;20218;-83
2024/03/19 02:43:20;;;;;;;9.13;5.20;;;6.40;99.90;;;;;;5066891;28;20239;-82
2024/03/19 02:45:47;;;;;;;12.47;4.87;;;6.40;99.90;;;;;;5057829;28;20219;-83
2024/03/19 02:48:18;;;;;;;8.13;5.13;;;6.40;99.90;;;;;;5057544;28;20231;-83
2024/03/19 02:50:45;;;;;;;7.30;4.07;;;6.30;1.00;;;;;;5057817;28;20211;-84
2024/03/19 02:53:12;;;;;;;9.03;4.93;;;6.20;1.00;;;;;;5064248;28;20199;-83
2024/03/19 02:55:39;;;;;;;9.77;5.17;;;6.20;1.00;;;;;;5062417;28;20202;-84
2024/03/19 02:58:07;;;;;;;6.80;4.57;;;6.20;1.00;;;;;;5077337;28;20194;-83
2024/03/19 03:00:37;;;;;;;9.90;5.03;;;6.00;1.00;;;;;;5077389;28;20327;-83
2024/03/19 03:03:04;;;;;;;8.57;4.53;;;5.80;1.00;;;;;;5059547;28;20221;-83
2024/03/19 03:05:31;;;;;;;8.40;4.83;;;5.80;94.00;;;;;;5058935;28;20221;-83
2024/03/19 03:07:58;;;;;;;7.30;4.47;;;5.80;99.90;;;;;;5074089;28;20335;-83
2024/03/19 03:10:25;;;;;;;8.47;4.80;;;5.80;99.90;;;;;;5044750;28;20194;-82
2024/03/19 03:12:52;;;;;;;6.90;4.57;;;5.60;1.00;;;;;;5061570;28;20257;-83
2024/03/19 03:15:20;;;;;;;7.67;4.83;;;5.40;1.00;;;;;;5059893;28;20233;-83
2024/03/19 03:17:47;;;;;;;8.10;4.43;;;5.30;1.00;;;;;;5062426;28;20609;-83
2024/03/19 03:20:15;;;;;;;11.00;4.97;;;5.20;1.00;;;;;;5056559;28;20238;-83
2024/03/19 03:22:42;;;;;;;7.73;4.47;;;5.20;64.20;;;;;;5056683;28;20254;-83
2024/03/19 03:25:11;;;;;;;7.80;4.70;;;5.20;99.90;;;;;;5064756;28;20226;-83
2024/03/19 03:27:39;;;;;;;10.83;5.60;;;5.20;99.90;;;;;;5057384;28;20203;-83
2024/03/19 03:30:10;;;;;;;9.13;4.57;;;5.10;59.60;;;;;;5066102;28;20204;-83
2024/03/19 03:32:39;;;;;;;8.30;4.83;;;4.90;99.90;;;;;;5077396;28;20226;-84
2024/03/19 03:35:07;;;;;;;10.77;5.07;;;4.80;1.00;;;;;;5057158;28;20800;-82
2024/03/19 03:37:35;;;;;;;6.80;4.70;;;4.70;1.00;;;;;;5057038;28;20210;-83
2024/03/19 03:40:07;;;;;;;9.63;4.70;;;4.70;1.00;;;;;;5073564;28;20202;-83
2024/03/19 03:42:34;;;;;;;9.70;5.30;;;4.80;1.00;;;;;;5076632;28;20253;-83
2024/03/19 03:45:01;;;;;;;9.90;5.57;;;4.80;1.00;;;;;;5076751;28;20291;-82
2024/03/19 03:47:28;;;;;;;10.87;5.60;;;4.80;99.90;;;;;;5059915;28;20198;-83
2024/03/19 03:49:56;;;;;;;9.87;5.63;;;4.60;1.00;;;;;;5057491;28;20241;-83
2024/03/19 03:52:25;;;;;;;7.33;4.90;;;4.70;1.00;;;;;;5075254;28;20246;-83
2024/03/19 03:54:52;;;;;;;9.37;5.30;;;4.70;1.00;;;;;;5061423;28;20203;-82
2024/03/19 03:57:19;;;;;;;8.50;4.77;;;4.80;1.00;;;;;;5064525;28;20205;-83
2024/03/19 03:59:47;;;;;;;8.57;4.50;;;4.70;1.00;;;;;;5052557;28;20230;-83
2024/03/19 04:02:14;;;;;;;9.57;5.00;;;4.80;1.00;;;;;;5063769;28;20236;-83
2024/03/19 04:04:41;;;;;;;7.83;4.57;;;4.60;1.00;;;;;;5064022;28;20893;-82
2024/03/19 04:07:09;;;;;;;9.17;5.17;;;4.50;1.00;;;;;;5056202;28;20211;-83
2024/03/19 04:09:36;;;;;;;9.27;4.90;;;4.30;1.00;;;;;;5066520;28;20332;-82
2024/03/19 04:12:04;;;;;;;9.60;5.63;;;4.20;1.00;;;;;;5063472;28;20224;-82
2024/03/19 04:14:31;;;;;;;7.57;5.07;;;4.10;99.90;;;;;;5057814;28;20194;-83
2024/03/19 04:16:58;;;;;;;10.13;5.50;;;4.00;99.90;;;;;;5062743;28;20253;-82
2024/03/19 04:19:24;;;;;;;10.10;5.37;;;3.90;1.00;;;;;;5064291;28;20242;-83
2024/03/19 04:21:51;;;;;;;8.53;5.17;;;3.90;1.00;;;;;;5064359;28;20288;-83
2024/03/19 04:24:20;;;;;;;9.37;5.83;;;3.80;71.60;;;;;;5065882;28;20202;-82
2024/03/19 04:26:47;;;;;;;10.07;5.40;;;4.00;1.00;;;;;;5065485;28;20758;-81
2024/03/19 04:29:15;;;;;;;10.50;5.60;;;3.80;1.00;;;;;;5063078;28;20672;-81
2024/03/19 04:31:42;;;;;;;9.87;5.37;;;4.00;99.90;;;;;;5054572;28;20226;-81
2024/03/19 04:34:10;;;;;;;9.23;5.63;;;4.00;99.90;;;;;;5053175;28;20295;-82
2024/03/19 04:36:37;;;;;;;11.13;6.07;;;4.00;1.00;;;;;;5049379;28;20234;-81
2024/03/19 04:39:10;;;;;;;10.30;5.40;;;3.70;1.00;;;;;;5055485;28;20261;-81
2024/03/19 04:41:39;;;;;;;8.33;4.87;;;3.70;1.00;;;;;;5051453;28;20249;-81
2024/03/19 04:44:06;;;;;;;8.83;5.23;;;3.70;1.00;;;;;;5063641;28;20202;-81
2024/03/19 04:46:33;;;;;;;8.97;4.97;;;3.60;1.00;;;;;;5057620;28;20218;-80
2024/03/19 04:49:00;;;;;;;10.13;5.57;;;3.40;99.90;;;;;;5062881;28;20572;-80
2024/03/19 04:51:27;;;;;;;9.27;5.47;;;3.40;1.00;;;;;;5062538;28;20298;-80
2024/03/19 04:53:54;;;;;;;9.13;5.20;;;3.30;99.90;;;;;;5065354;28;20260;-81
2024/03/19 04:56:21;;;;;;;9.93;5.40;;;3.30;1.00;;;;;;5061914;28;20234;-82
2024/03/19 04:58:51;;;;;;;7.67;4.97;;;3.20;1.00;;;;;;5049275;28;20664;-81
2024/03/19 05:01:19;;;;;;;8.67;5.13;;;3.30;1.00;;;;;;5045350;28;20306;-81
2024/03/19 05:03:46;;;;;;;8.40;4.87;;;3.40;1.00;;;;;;5038223;28;20693;-82
2024/03/19 05:06:13;;;;;;;10.40;5.23;;;3.20;1.00;;;;;;5040114;28;20658;-82
2024/03/19 05:08:41;;;;;;;11.33;5.73;;;3.30;1.00;;;;;;5041055;28;20199;-81
2024/03/19 05:11:08;;;;;;;9.50;5.70;;;3.40;99.90;;;;;;5047882;28;20641;-80
2024/03/19 05:13:37;;;;;;;12.90;5.97;;;3.50;99.90;;;;;;5049445;28;20198;-81
2024/03/19 05:16:06;;;;;;;11.33;5.63;;;3.40;1.00;;;;;;5040869;28;20199;-80
2024/03/19 05:18:33;;;;;;;8.97;5.20;;;3.50;1.00;;;;;;5048401;28;20229;-81
2024/03/19 05:21:00;;;;;;;8.47;5.13;;;3.40;1.00;;;;;;5052736;28;20231;-82
2024/03/19 05:23:27;;;;;;;8.50;5.17;;;3.20;1.00;;;;;;5051335;28;20264;-82
2024/03/19 05:25:54;;;;;;;9.87;5.37;;;3.20;1.00;;;;;;5054493;28;20606;-81
2024/03/19 05:28:22;;;;;;;8.27;4.80;;;3.20;1.00;;;;;;5050051;28;20196;-81
2024/03/19 05:30:49;;;;;;;9.07;4.80;;;3.30;1.00;;;;;;5057903;28;20325;-82
2024/03/19 05:33:17;;;;;;;11.63;5.20;;;3.20;1.00;;;;;;5053403;28;20230;-80
2024/03/19 05:35:44;;;;;;;10.00;5.13;;;3.10;1.00;;;;;;5054955;28;20195;-81
2024/03/19 05:38:11;;;;;;;8.33;5.47;;;3.00;1.00;;;;;;5058435;28;20266;-82
2024/03/19 05:40:38;;;;;;;10.13;5.43;;;2.90;1.00;;;;;;5058237;28;20230;-80
2024/03/19 05:43:06;;;;;;;8.13;5.03;;;3.00;99.90;;;;;;5067010;28;20202;-81
2024/03/19 05:45:33;;;;;;;8.93;5.97;;;3.00;99.90;;;;;;5062659;28;20284;-81
2024/03/19 05:48:02;;;;;;;11.40;6.30;;;3.20;99.90;;;;;;5060991;28;20238;-80
2024/03/19 05:50:30;;;;;;;9.97;5.47;;;3.20;1.00;;;;;;5066549;28;20202;-81
2024/03/19 05:52:57;;;;;;;10.03;4.97;;;3.30;1.00;;;;;;5065531;28;20242;-81
2024/03/19 05:55:25;;;;;;;10.40;5.23;;;3.30;1.00;;;;;;5069336;28;20278;-82
2024/03/19 05:57:52;;;;;;;9.20;5.70;;;3.40;1.00;;;;;;5054956;28;20203;-81
2024/03/19 06:00:21;;;;;;;11.77;5.90;;;3.70;80.30;;;;;;5055747;28;20669;-81
2024/03/19 06:02:49;;;;;;;13.33;6.40;;;3.70;1.00;;;;;;5057443;28;20306;-80
2024/03/19 06:05:16;;;;;;;9.90;6.00;;;3.70;1.00;;;;;;5052412;28;20227;-80
2024/03/19 06:07:44;;;;;;;11.90;6.07;;;3.90;1.00;;;;;;5044349;28;20269;-80
2024/03/19 06:10:11;;;;;;;10.77;6.03;;;4.30;1.00;;;;;;5053884;28;20625;-80
2024/03/19 06:12:38;;;;;;;8.80;5.50;;;4.30;99.90;;;;;;5046309;28;20651;-80
2024/03/19 06:15:09;;;;;;;11.63;5.77;;;4.40;99.90;;;;;;5045146;28;20619;-80
2024/03/19 06:17:36;;;;;;;7.73;5.70;;;4.40;99.90;;;;;;5047082;28;20194;-80
2024/03/19 06:20:08;;;;;;;11.20;6.57;;;4.40;1.00;;;;;;5053117;28;20285;-80
2024/03/19 06:22:35;;;;;;;11.40;5.87;;;4.60;99.90;;;;;;5054354;28;20226;-80
2024/03/19 06:25:04;;;;;;;10.53;6.20;;;4.70;1.00;;;;;;5056438;28;20200;-80
2024/03/19 06:27:31;;;;;;;12.27;6.30;;;4.70;1.00;;;;;;5055332;28;20233;-81
2024/03/19 06:29:58;;;;;;;10.30;6.00;;;4.80;1.00;;;;;;5054112;28;20245;-80
2024/03/19 06:32:25;;;;;;;9.93;5.40;;;4.90;1.00;;;;;;5061301;28;20237;-80
2024/03/19 06:34:53;;;;;;;11.47;6.97;;;4.80;99.90;;;;;;5064169;28;20198;-81
2024/03/19 06:37:20;;;;;;;9.57;5.87;;;4.90;1.00;;;;;;5056570;28;20199;-81
2024/03/19 06:39:47;;;;;;;9.40;5.87;;;4.90;99.90;;;;;;5058946;28;20633;-80
2024/03/19 06:42:15;;;;;;;11.63;6.00;;;5.10;1.00;;;;;;5062972;28;20242;-80
2024/03/19 06:44:42;;;;;;;10.60;6.57;;;5.30;1.00;;;;;;5055124;28;20295;-80
2024/03/19 06:47:09;;;;;;;11.33;6.93;;;5.40;1.00;;;;;;5056230;28;20217;-81
2024/03/19 06:49:36;;;;;;;13.37;8.23;;;5.60;1.00;;;;;;5060008;28;20197;-82
2024/03/19 06:52:03;;;;;;;13.43;7.47;;;5.70;1.00;;;;;;5062612;28;20257;-81
2024/03/19 06:54:31;;;;;;;11.60;7.37;;;5.70;1.00;;;;;;5060049;28;20247;-80
2024/03/19 06:56:58;;;;;;;11.07;6.80;;;5.80;1.00;;;;;;5058318;28;20656;-82
2024/03/19 06:59:27;;;;;;;10.73;5.97;;;5.90;1.00;;;;;;5062870;28;20260;-81
2024/03/19 07:01:54;;;;;;;12.57;6.33;;;6.00;1.00;;;;;;5059510;28;20230;-81
2024/03/19 07:04:21;;;;;;;11.97;6.57;;;6.00;1.00;;;;;;5060198;28;20239;-82
2024/03/19 07:06:48;;;;;;;9.33;6.10;;;6.10;1.00;;;;;;5068298;28;20247;-80
2024/03/19 07:09:17;;;;;;;10.10;5.83;;;6.30;99.90;;;;;;5058096;28;20203;-81
2024/03/19 07:11:44;;;;;;;11.63;6.63;;;6.40;99.90;;;;;;5062967;28;20222;-80
2024/03/19 07:14:11;;;;;;;11.83;6.37;;;6.50;1.00;;;;;;5046338;28;20228;-82
2024/03/19 07:16:40;;;;;;;10.33;6.00;;;6.80;1.00;;;;;;5050472;28;20216;-80
2024/03/19 07:19:08;;;;;;;9.60;6.43;;;6.90;1.00;;;;;;5049396;28;20203;-81
2024/03/19 07:21:35;;;;;;;10.87;6.27;;;6.90;1.00;;;;;;5060896;28;20226;-80
2024/03/19 07:24:01;;;;;;;12.37;6.70;;;7.00;1.00;;;;;;5049106;28;20272;-81
2024/03/19 07:26:28;;;;;;;8.90;5.87;;;7.10;1.00;;;;;;5050255;28;20659;-82
2024/03/19 07:28:56;;;;;;;11.00;6.23;;;7.30;1.00;;;;;;5057203;28;20285;-82
2024/03/19 07:31:23;;;;;;;9.83;6.47;;;7.20;99.90;;;;;;5063957;28;20241;-82
2024/03/19 07:33:52;;;;;;;9.87;6.50;;;7.30;99.90;;;;;;5055073;28;20199;-81
2024/03/19 07:36:19;;;;;;;11.60;6.60;;;7.30;99.90;;;;;;5059375;28;20664;-81
2024/03/19 07:38:46;;;;;;;10.90;6.77;;;7.40;99.90;;;;;;5060875;28;20202;-82
2024/03/19 07:41:13;;;;;;;13.23;6.80;;;7.80;99.90;;;;;;5056036;28;20222;-80
2024/03/19 07:43:40;;;;;;;10.87;6.53;;;8.10;99.90;;;;;;5063525;28;20652;-81
2024/03/19 07:46:07;;;;;;;14.63;7.90;;;8.30;99.90;;;;;;5064538;28;20675;-81
2024/03/19 07:48:34;;;;;;;10.47;7.07;;;8.80;1.00;;;;;;5067009;28;20719;-81
2024/03/19 07:51:03;;;;;;;12.87;7.37;;;9.10;1.00;;;;;;5063360;28;20225;-81
2024/03/19 07:53:30;;;;;;;17.60;8.00;;;9.40;1.00;;;;;;5062853;28;20246;-81
2024/03/19 07:55:57;;;;;;;17.43;8.20;;;9.50;1.00;;;;;;5060403;28;20662;-82
2024/03/19 07:58:23;;;;;;;17.63;7.73;;;9.30;1.00;;;;;;5055087;28;20199;-80
2024/03/19 08:00:51;;;;;;;15.77;7.83;;;9.20;1.00;;;;;;5056208;28;20437;-81
2024/03/19 08:03:18;;;;;;;17.10;8.13;;;9.00;1.00;;;;;;5063912;28;20203;-81
2024/03/19 08:05:46;;;;;;;14.40;7.70;;;9.10;1.00;;;;;;5065519;28;20239;-81
2024/03/19 08:08:16;;;;;;;12.83;7.57;;;9.00;1.00;;;;;;5061722;28;20249;-81
2024/03/19 08:10:43;;;;;;;15.43;8.37;;;9.20;1.00;;;;;;5066786;28;20665;-81
2024/03/19 08:13:10;;;;;;;13.37;8.10;;;9.00;1.00;;;;;;5057158;28;20199;-82
2024/03/19 08:15:37;;;;;;;15.70;9.47;;;9.20;1.00;;;;;;5058905;28;20206;-80
2024/03/19 08:18:04;;;;;;;17.93;9.80;;;9.80;1.00;;;;;;5056703;28;20227;-82
2024/03/19 08:20:31;;;;;;;15.43;8.90;;;10.20;1.00;;;;;;5053973;28;20252;-82
2024/03/19 08:22:58;;;;;;;15.90;8.73;;;10.60;99.90;;;;;;5049471;28;20227;-81
2024/03/19 08:25:26;;;;;;;15.30;9.17;;;10.50;99.90;;;;;;5056674;28;20237;-80
2024/03/19 08:27:53;;;;;;;18.67;9.83;;;10.60;99.90;;;;;;5053474;28;20264;-82
2024/03/19 08:30:20;;;;;;;16.83;9.13;;;11.10;99.90;;;;;;5052950;28;20555;-81
2024/03/19 08:32:47;;;;;;;18.70;10.90;;;11.40;99.90;;;;;;5057191;28;20648;-81
2024/03/19 08:35:14;;;;;;;21.77;11.10;;;11.70;99.90;;;;;;5054196;28;20200;-81
2024/03/19 08:37:42;;;;;;;17.87;10.33;;;11.50;99.90;;;;;;5065110;28;20209;-81
2024/03/19 08:40:10;;;;;;;20.97;11.13;;;11.70;99.90;;;;;;5059362;28;20211;-81
2024/03/19 08:42:38;;;;;;;20.10;11.67;;;11.50;99.90;;;;;;5051797;28;20656;-82
2024/03/19 08:45:10;;;;;;;19.83;11.27;;;11.80;99.90;;;;;;5062544;28;20198;-82
2024/03/19 08:47:38;;;;;;;22.17;12.50;;;12.10;99.90;;;;;;5066473;28;20214;-81
2024/03/19 08:50:07;;;;;;;21.03;11.80;;;12.20;99.90;;;;;;5063212;28;20450;-82
2024/03/19 08:52:34;;;;;;;22.43;11.63;;;12.10;99.90;;;;;;5058754;28;20305;-81
2024/03/19 08:55:02;;;;;;;22.40;13.23;;;11.70;99.90;;;;;;5060101;28;20285;-81
2024/03/19 08:57:29;;;;;;;21.17;12.43;;;11.60;99.90;;;;;;5057588;28;20262;-81
2024/03/19 08:59:59;;;;;;;22.30;12.57;;;11.70;99.90;;;;;;5053331;28;20328;-81
2024/03/19 09:02:26;;;;;;;24.00;13.73;;;11.80;99.90;;;;;;5053901;28;20229;-81
2024/03/19 09:04:53;;;;;;;22.60;13.20;;;11.80;99.90;;;;;;5058263;28;20260;-82
2024/03/19 09:07:20;;;;;;;24.17;13.83;;;11.70;99.90;;;;;;5062334;28;20260;-81
2024/03/19 09:09:48;;;;;;;24.87;13.50;;;12.00;99.90;;;;;;5066024;28;20227;-82
2024/03/19 09:12:15;;;;;;;22.73;12.50;;;12.10;99.90;;;;;;5061518;28;20222;-82
2024/03/19 09:14:42;;;;;;;22.30;13.17;;;12.20;99.90;;;;;;5057904;28;20206;-82
2024/03/19 09:17:11;;;;;;;23.97;14.00;;;12.10;99.90;;;;;;5063061;28;20707;-82
2024/03/19 09:19:41;;;;;;;24.23;14.47;;;12.00;99.90;;;;;;5065810;28;20217;-81
2024/03/19 09:22:08;;;;;;;23.00;14.50;;;11.60;99.90;;;;;;5061870;28;20685;-81
2024/03/19 09:24:36;;;;;;;22.30;13.40;;;11.80;99.90;;;;;;5061140;28;20235;-81
2024/03/19 09:27:03;;;;;;;25.23;14.70;;;12.10;99.90;;;;;;5059099;28;20732;-81
2024/03/19 09:29:30;;;;;;;24.50;14.17;;;12.20;99.90;;;;;;5051183;28;20471;-81
2024/03/19 09:31:58;;;;;;;23.00;13.03;;;13.00;99.90;;;;;;5052901;28;20226;-81
2024/03/19 09:34:26;;;;;;;23.20;13.73;;;13.80;99.90;;;;;;5058320;28;20272;-81
2024/03/19 09:36:53;;;;;;;23.90;14.00;;;14.30;99.90;;;;;;5061131;28;20242;-81
2024/03/19 09:39:20;;;;;;;24.55;13.80;;;13.90;96.40;;;;;;5051967;28;20239;-82
2024/03/19 09:41:56;;;;;;;23.60;13.40;;;14.30;99.90;;;;;;5068062;28;20684;-81
2024/03/19 09:44:23;;;;;;;24.65;15.23;;;14.50;84.70;;;;;;5060502;28;20203;-81
2024/03/19 09:46:51;;;;;;;25.63;15.82;;;14.40;23.60;;;;;;5066153;28;20680;-79
2024/03/19 09:49:18;;;;;;;24.97;13.90;;;15.00;16.10;;;;;;5056142;28;20237;-79
2024/03/19 09:51:47;;;;;;;24.47;14.67;;;14.70;1.00;;;;;;5062818;28;20315;-81
2024/03/19 09:54:15;;;;;;;22.65;14.60;;;14.30;1.00;;;;;;5053868;28;20229;-82
2024/03/19 09:56:42;;;;;;;24.48;14.23;;;14.90;1.00;;;;;;5061454;28;20696;-82
2024/03/19 09:59:15;;;;;;;23.80;14.75;;;14.70;1.00;;;;;;5052560;28;20204;-82
2024/03/19 10:01:43;;;;;;;25.10;15.20;;;14.80;1.00;;;;;;5059803;28;20225;-81
2024/03/19 10:04:14;;;;;;;25.48;14.82;;;14.50;1.00;;;;;;5062450;28;20634;-81
2024/03/19 10:06:42;;;;;;;24.08;14.20;;;14.60;1.00;;;;;;5060273;28;20732;-81
2024/03/19 10:09:10;;;;;;;28.63;15.30;;;13.90;1.00;;;;;;5059598;28;20230;-81
2024/03/19 10:11:37;;;;;;;24.42;13.77;;;14.20;1.00;;;;;;5060411;28;20223;-81
2024/03/19 10:14:04;;;;;;;26.55;15.95;;;14.40;1.00;;;;;;5056793;28;20195;-81
2024/03/19 10:16:31;;;;;;;25.77;14.02;;;14.40;1.00;;;;;;5057680;28;20230;-82
2024/03/19 10:18:58;;;;;;;24.70;14.40;;;14.10;1.00;;;;;;5057976;28;20235;-82
2024/03/19 10:21:26;;;;;;;24.15;13.80;;;14.00;1.00;;;;;;5070412;28;20751;-81
2024/03/19 10:23:53;;;;;;;24.67;14.70;;;14.60;1.00;;;;;;5055661;28;20199;-81
2024/03/19 10:26:21;;;;;;;28.75;15.18;;;14.70;1.00;;;;;;5054087;28;20238;-81
2024/03/19 10:28:48;;;;;;;25.88;14.57;;;14.50;1.00;;;;;;5060997;28;20226;-81
2024/03/19 10:31:15;;;;;;;25.73;15.02;;;14.80;1.00;;;;;;5066728;28;20219;-81
2024/03/19 10:33:45;;;;;;;23.33;14.23;;;14.70;1.00;;;;;;5058883;28;20294;-82
2024/03/19 10:36:22;;;;;;;23.77;13.98;;;15.10;1.00;;;;;;5065806;28;20249;-81
2024/03/19 10:38:50;;;;;;;25.77;14.77;;;15.40;1.00;;;;;;5058224;28;20195;-80
2024/03/19 10:41:21;;;;;;;23.65;14.35;;;15.00;1.00;;;;;;5059709;28;20254;-79
2024/03/19 10:43:49;;;;;;;26.20;14.80;;;15.70;1.00;;;;;;5061961;28;20569;-80
2024/03/19 10:46:18;;;;;;;27.17;14.23;;;15.90;1.00;;;;;;5063669;28;20289;-79
2024/03/19 10:48:47;;;;;;;23.80;14.15;;;15.40;1.00;;;;;;5066050;28;20229;-79
2024/03/19 10:51:14;;;;;;;25.30;14.77;;;15.60;1.00;;;;;;5064157;28;20222;-79
2024/03/19 10:53:42;;;;;;;22.50;13.63;;;15.90;1.00;;;;;;5059699;28;20238;-79
2024/03/19 10:56:10;;;;;;;22.35;13.80;;;15.70;1.00;;;;;;5051882;28;20195;-80
2024/03/19 10:58:40;;;;;;;24.83;14.77;;;15.90;1.00;;;;;;5055544;28;20218;-80
2024/03/19 11:01:08;;;;;;;22.48;13.95;;;15.70;1.00;;;;;;5053406;28;20758;-80
2024/03/19 11:03:35;;;;;;;24.42;14.35;;;15.60;1.00;;;;;;5052120;28;20206;-80
2024/03/19 11:06:05;;;;;;;24.20;14.88;;;15.90;1.00;;;;;;5054615;28;20554;-79
2024/03/19 11:08:37;;;;;;;24.73;14.85;;;15.40;1.00;;;;;;5048075;28;20226;-80
2024/03/19 11:11:07;;;;;;;25.75;13.77;;;15.80;1.00;;;;;;5054932;28;20225;-79
2024/03/19 11:13:36;;;;;;;23.45;13.90;;;15.80;1.00;;;;;;5050133;28;20207;-80
2024/03/19 11:16:14;;;;;;;22.75;14.07;;;16.10;1.00;;;;;;5058118;28;20287;-79
2024/03/19 11:18:45;;;;;;;25.15;14.13;;;16.00;1.00;;;;;;5052723;28;20203;-79
2024/03/19 11:21:19;;;;;;;25.45;14.32;;;15.90;1.00;;;;;;5055336;28;20313;-79
2024/03/19 11:23:47;;;;;;;26.25;15.85;;;15.80;1.00;;;;;;5058915;28;20209;-79
2024/03/19 11:26:16;;;;;;;24.60;14.45;;;15.60;1.00;;;;;;5059790;28;20230;-80
2024/03/19 11:28:43;;;;;;;22.80;13.50;;;15.60;1.00;;;;;;5052123;28;20223;-79
2024/03/19 11:31:13;;;;;;;25.38;14.82;;;15.80;1.00;;;;;;5062111;28;20257;-79
2024/03/19 11:33:41;;;;;;;25.27;14.40;;;15.50;1.00;;;;;;5064402;28;20286;-79
2024/03/19 11:36:08;;;;;;;23.80;13.68;;;15.60;1.00;;;;;;5061579;28;20204;-80
2024/03/19 11:38:35;;;;;;;22.67;13.82;;;15.70;1.00;;;;;;5064376;28;20238;-79
2024/03/19 11:41:04;;;;;;;23.10;13.75;;;16.50;1.00;;;;;;5057615;28;20222;-79
2024/03/19 11:43:32;;;;;;;23.73;13.85;;;16.70;1.00;;;;;;5047215;28;20204;-79
2024/03/19 11:46:00;;;;;;;22.88;13.57;;;16.30;1.00;;;;;;5063449;28;20653;-79
2024/03/19 11:48:29;;;;;;;22.02;13.55;;;16.50;1.00;;;;;;5063594;28;20283;-79
2024/03/19 11:50:57;;;;;;;24.33;13.55;;;16.50;1.00;;;;;;5062333;28;20633;-79
2024/03/19 11:53:24;;;;;;;23.60;14.70;;;15.80;1.00;;;;;;5054294;28;20742;-79
2024/03/19 11:55:53;;;;;;;24.08;14.27;;;15.80;1.00;;;;;;5045415;28;20200;-79
2024/03/19 11:58:20;;;;;;;24.38;15.02;;;15.80;1.00;;;;;;5045867;28;20577;-79
2024/03/19 12:00:47;;;;;;;22.73;14.18;;;15.90;1.00;;;;;;5039995;28;20215;-79
2024/03/19 12:03:16;;;;;;;22.05;13.50;;;16.00;1.00;;;;;;5043144;28;20219;-79
2024/03/19 12:05:48;;;;;;;23.00;13.75;;;15.70;1.00;;;;;;5046203;28;20231;-78
2024/03/19 12:08:16;;;;;;;23.67;13.65;;;15.50;1.00;;;;;;5054085;28;20642;-79
2024/03/19 12:10:44;;;;;;;24.23;14.40;;;15.60;1.00;;;;;;5045473;28;20585;-79
2024/03/19 12:13:11;;;;;;;25.35;14.07;;;15.50;1.00;;;;;;5054146;28;20205;-79
2024/03/19 12:15:40;;;;;;;22.85;14.13;;;15.60;1.00;;;;;;5054275;28;20198;-79
2024/03/19 12:18:07;;;;;;;22.38;13.52;;;15.90;1.00;;;;;;5049983;28;20227;-79
2024/03/19 12:20:35;;;;;;;23.20;13.65;;;16.20;1.00;;;;;;5056745;28;20199;-79
2024/03/19 12:23:04;;;;;;;24.40;13.90;;;16.90;1.00;;;;;;5048835;28;20289;-80
2024/03/19 12:25:34;;;;;;;23.27;13.90;;;16.90;1.00;;;;;;5057960;28;20712;-79
2024/03/19 12:28:03;;;;;;;22.73;13.40;;;17.20;1.00;;;;;;5054993;28;20296;-79
2024/03/19 12:30:32;;;;;;;24.55;13.88;;;17.00;1.00;;;;;;5057207;28;20672;-79
2024/03/19 12:33:10;;;;;;;23.88;13.82;;;16.40;1.00;;;;;;5053096;28;20640;-79
2024/03/19 12:35:40;;;;;;;21.05;12.77;;;16.70;1.00;;;;;;5061932;28;20649;-79
2024/03/19 12:38:11;;;;;;;21.35;13.02;;;16.80;1.00;;;;;;5052232;28;20229;-82
2024/03/19 12:40:39;;;;;;;22.35;13.90;;;17.50;1.00;;;;;;5063406;28;20202;-81
2024/03/19 12:43:06;;;;;;;23.60;12.73;;;17.30;1.00;;;;;;5064519;28;20232;-82
2024/03/19 12:45:33;;;;;;;20.55;12.45;;;17.50;1.00;;;;;;5061887;28;20653;-81
2024/03/19 12:48:00;;;;;;;22.70;13.50;;;17.40;1.00;;;;;;5052666;28;20237;-79
2024/03/19 12:50:27;;;;;;;20.58;12.20;;;17.70;1.00;;;;;;5063000;28;20676;-79
2024/03/19 12:52:54;;;;;;;19.65;12.32;;;17.60;1.00;;;;;;5062803;28;20261;-79